Time;durP1;ratioP1;P1;durP2;ratioP2;P2;SDS_P1;SDS_P2;PMS_P1;PMS_P2;Temp;Humidity;BMP_temperature;BMP_pressure;BME280_temperature;BME280_humidity;BME280_pressure;Samples;Min_cycle;Max_cycle;Signal;HPM_P1;HPM_P2
2023/12/06 00:01:01;;;;;;;19.53;10.77;;;4.50;99.90;;;;;;5077636;28;20451;-70
2023/12/06 00:03:27;;;;;;;19.10;11.33;;;4.50;99.90;;;;;;5077609;28;20158;-69
2023/12/06 00:05:52;;;;;;;20.40;11.70;;;4.50;99.90;;;;;;5077686;28;20173;-70
2023/12/06 00:08:18;;;;;;;17.80;10.40;;;4.50;99.90;;;;;;5077586;28;20162;-70
2023/12/06 00:10:43;;;;;;;19.57;11.53;;;4.50;99.90;;;;;;5077749;28;20283;-70
2023/12/06 00:13:09;;;;;;;19.43;10.83;;;4.40;99.90;;;;;;5075964;28;20188;-70
2023/12/06 00:15:34;;;;;;;22.40;11.10;;;4.40;99.90;;;;;;5074548;28;20170;-70
2023/12/06 00:18:00;;;;;;;16.90;11.73;;;4.40;99.90;;;;;;5074167;28;20166;-70
2023/12/06 00:20:25;;;;;;;22.40;10.37;;;4.40;99.90;;;;;;5073210;28;20210;-70
2023/12/06 00:22:51;;;;;;;20.57;11.27;;;4.40;99.90;;;;;;5074492;28;20224;-70
2023/12/06 00:25:16;;;;;;;24.37;11.73;;;4.40;99.90;;;;;;5074450;28;20194;-70
2023/12/06 00:27:42;;;;;;;20.43;12.40;;;4.40;99.90;;;;;;5074196;28;20599;-70
2023/12/06 00:30:08;;;;;;;23.90;12.37;;;4.50;99.90;;;;;;5073964;28;20261;-70
2023/12/06 00:32:33;;;;;;;16.07;10.07;;;4.40;99.90;;;;;;5074280;28;20167;-70
2023/12/06 00:34:59;;;;;;;20.40;11.07;;;4.50;99.90;;;;;;5074297;28;20416;-70
2023/12/06 00:37:24;;;;;;;19.10;9.43;;;4.50;99.90;;;;;;5074048;28;20236;-70
2023/12/06 00:39:50;;;;;;;16.27;9.67;;;4.50;99.90;;;;;;5072815;28;20251;-70
2023/12/06 00:42:15;;;;;;;18.10;11.63;;;4.50;99.90;;;;;;5074064;28;20173;-70
2023/12/06 00:44:41;;;;;;;17.70;9.20;;;4.40;99.90;;;;;;5073998;28;20158;-70
2023/12/06 00:47:06;;;;;;;20.47;10.50;;;4.40;99.90;;;;;;5074025;28;20166;-70
2023/12/06 00:49:32;;;;;;;22.00;12.00;;;4.40;99.90;;;;;;5073828;28;20629;-70
2023/12/06 00:51:58;;;;;;;19.73;10.63;;;4.30;99.90;;;;;;5073752;28;20251;-70
2023/12/06 00:54:23;;;;;;;23.40;11.90;;;4.30;99.90;;;;;;5073860;28;20207;-70
2023/12/06 00:56:49;;;;;;;25.20;12.13;;;4.30;99.90;;;;;;5073923;28;20706;-70
2023/12/06 00:59:14;;;;;;;21.17;11.80;;;4.30;99.90;;;;;;5073515;28;20699;-70
2023/12/06 01:01:40;;;;;;;21.53;11.90;;;4.30;99.90;;;;;;5073643;28;20198;-70
2023/12/06 01:04:05;;;;;;;27.73;12.07;;;4.20;99.90;;;;;;5073615;28;20163;-70
2023/12/06 01:06:31;;;;;;;26.03;12.33;;;4.20;99.90;;;;;;5073561;28;20174;-70
2023/12/06 01:08:56;;;;;;;24.20;10.83;;;4.10;99.90;;;;;;5073234;28;20177;-70
2023/12/06 01:11:22;;;;;;;23.17;12.80;;;4.20;99.90;;;;;;5073465;28;20277;-70
2023/12/06 01:13:48;;;;;;;27.40;12.00;;;4.20;99.90;;;;;;5073280;28;20171;-70
2023/12/06 01:16:13;;;;;;;26.33;12.90;;;4.20;99.90;;;;;;5073425;28;20401;-70
2023/12/06 01:18:39;;;;;;;32.70;14.50;;;4.20;99.90;;;;;;5073326;28;20166;-69
2023/12/06 01:21:05;;;;;;;35.23;14.93;;;4.10;99.90;;;;;;5073142;28;20205;-70
2023/12/06 01:23:30;;;;;;;31.60;13.97;;;4.10;99.90;;;;;;5073417;28;20163;-70
2023/12/06 01:25:55;;;;;;;26.33;14.20;;;4.10;99.90;;;;;;5071980;28;20189;-70
2023/12/06 01:28:21;;;;;;;31.30;14.90;;;4.10;99.90;;;;;;5071650;28;20668;-70
2023/12/06 01:30:47;;;;;;;31.97;14.80;;;4.00;99.90;;;;;;5071801;28;20197;-70
2023/12/06 01:33:13;;;;;;;23.80;13.70;;;4.00;99.90;;;;;;5073060;28;20168;-70
2023/12/06 01:35:38;;;;;;;34.23;15.23;;;4.00;99.90;;;;;;5073202;28;20239;-70
2023/12/06 01:38:04;;;;;;;44.37;17.47;;;4.00;99.90;;;;;;5071583;28;20443;-70
2023/12/06 01:40:29;;;;;;;31.37;15.67;;;4.00;99.90;;;;;;5072919;28;20572;-70
2023/12/06 01:42:55;;;;;;;35.10;17.97;;;4.00;99.90;;;;;;5071511;28;20166;-69
2023/12/06 01:45:20;;;;;;;32.27;16.40;;;3.90;99.90;;;;;;5072865;28;20162;-70
2023/12/06 01:47:47;;;;;;;34.83;18.53;;;3.90;99.90;;;;;;5072571;28;20166;-70
2023/12/06 01:50:14;;;;;;;36.30;16.93;;;3.90;99.90;;;;;;5072664;28;20190;-70
2023/12/06 01:52:39;;;;;;;34.57;18.40;;;3.90;99.90;;;;;;5072392;28;20400;-70
2023/12/06 01:55:05;;;;;;;40.37;19.30;;;3.90;99.90;;;;;;5072515;28;20435;-69
2023/12/06 01:57:31;;;;;;;39.60;18.03;;;3.90;99.90;;;;;;5072514;28;20174;-70
2023/12/06 01:59:58;;;;;;;39.60;18.50;;;3.80;99.90;;;;;;5072414;28;20533;-70
2023/12/06 02:02:25;;;;;;;36.40;17.80;;;3.80;99.90;;;;;;5072392;28;20496;-70
2023/12/06 02:04:51;;;;;;;41.00;17.20;;;3.80;99.90;;;;;;5072933;28;20484;-70
2023/12/06 02:07:17;;;;;;;29.00;16.43;;;3.80;99.90;;;;;;5072380;28;20483;-70
2023/12/06 02:09:44;;;;;;;38.93;19.17;;;3.80;99.90;;;;;;5072417;28;20424;-70
2023/12/06 02:12:09;;;;;;;40.57;20.40;;;3.80;99.90;;;;;;5072291;28;20409;-70
2023/12/06 02:14:35;;;;;;;38.00;19.90;;;3.80;99.90;;;;;;5072454;28;20426;-70
2023/12/06 02:17:05;;;;;;;43.40;20.87;;;3.70;99.90;;;;;;5072393;28;20235;-70
2023/12/06 02:19:31;;;;;;;47.90;22.07;;;3.70;99.90;;;;;;5071835;28;20198;-70
2023/12/06 02:21:58;;;;;;;48.13;20.73;;;3.60;99.90;;;;;;5072093;28;20972;-70
2023/12/06 02:24:28;;;;;;;41.53;21.30;;;3.70;99.90;;;;;;5072217;28;20227;-70
2023/12/06 02:26:54;;;;;;;41.53;20.83;;;3.60;99.90;;;;;;5072174;28;20492;-70
2023/12/06 02:29:20;;;;;;;44.03;20.80;;;3.60;99.90;;;;;;5072003;28;20469;-70
2023/12/06 02:31:45;;;;;;;48.10;22.47;;;3.60;99.90;;;;;;5071867;28;20190;-70
2023/12/06 02:34:16;;;;;;;58.67;24.93;;;3.60;99.90;;;;;;5072098;28;20411;-70
2023/12/06 02:36:45;;;;;;;45.20;22.70;;;3.60;99.90;;;;;;5071769;28;20162;-70
2023/12/06 02:39:11;;;;;;;48.30;23.37;;;3.60;99.90;;;;;;5071702;28;20433;-70
2023/12/06 02:41:36;;;;;;;47.27;22.37;;;3.60;99.90;;;;;;5071740;28;20456;-70
2023/12/06 02:44:02;;;;;;;47.03;21.73;;;3.60;99.90;;;;;;5071990;28;20196;-69
2023/12/06 02:46:28;;;;;;;40.83;21.40;;;3.70;99.90;;;;;;5071920;28;20185;-70
2023/12/06 02:48:53;;;;;;;52.83;22.07;;;3.70;99.90;;;;;;5071755;28;20257;-69
2023/12/06 02:51:22;;;;;;;44.83;21.53;;;3.60;99.90;;;;;;5071732;28;20193;-70
2023/12/06 02:53:48;;;;;;;45.00;21.20;;;3.60;99.90;;;;;;5071322;28;20617;-70
2023/12/06 02:56:14;;;;;;;42.93;21.47;;;3.60;99.90;;;;;;5071695;28;20412;-70
2023/12/06 02:58:40;;;;;;;46.47;22.50;;;3.60;99.90;;;;;;5070191;28;20807;-70
2023/12/06 03:01:05;;;;;;;45.70;21.33;;;3.60;99.90;;;;;;5070370;28;20546;-70
2023/12/06 03:03:31;;;;;;;42.73;22.03;;;3.60;99.90;;;;;;5071747;28;20171;-70
2023/12/06 03:05:56;;;;;;;41.40;20.23;;;3.60;99.90;;;;;;5071675;28;20167;-70
2023/12/06 03:08:22;;;;;;;37.60;20.00;;;3.60;99.90;;;;;;5071551;28;20665;-70
2023/12/06 03:10:47;;;;;;;41.03;21.67;;;3.60;99.90;;;;;;5071778;28;20189;-70
2023/12/06 03:13:13;;;;;;;38.30;20.80;;;3.60;99.90;;;;;;5071559;28;20174;-70
2023/12/06 03:15:39;;;;;;;34.10;20.07;;;3.60;99.90;;;;;;5071703;28;20182;-70
2023/12/06 03:18:05;;;;;;;37.60;21.10;;;3.60;99.90;;;;;;5071389;28;20536;-70
2023/12/06 03:20:30;;;;;;;35.00;18.97;;;3.60;99.90;;;;;;5071406;28;20460;-70
2023/12/06 03:22:56;;;;;;;38.30;21.00;;;3.60;99.90;;;;;;5071500;28;20688;-70
2023/12/06 03:25:21;;;;;;;41.83;20.83;;;3.60;99.90;;;;;;5071522;28;20170;-69
2023/12/06 03:27:47;;;;;;;37.97;19.50;;;3.60;99.90;;;;;;5071292;28;20630;-70
2023/12/06 03:30:12;;;;;;;38.53;20.67;;;3.70;99.90;;;;;;5071432;28;20194;-70
2023/12/06 03:32:38;;;;;;;38.90;21.63;;;3.60;99.90;;;;;;5071374;28;20181;-70
2023/12/06 03:35:04;;;;;;;36.60;20.23;;;3.70;99.90;;;;;;5071440;28;20213;-70
2023/12/06 03:37:30;;;;;;;34.83;18.20;;;3.70;99.90;;;;;;5071192;28;20261;-69
2023/12/06 03:39:55;;;;;;;39.80;20.50;;;3.70;99.90;;;;;;5071243;28;20552;-70
2023/12/06 03:42:21;;;;;;;34.13;18.57;;;3.70;99.90;;;;;;5071345;28;20579;-70
2023/12/06 03:44:46;;;;;;;35.30;19.53;;;3.70;99.90;;;;;;5071423;28;20232;-70
2023/12/06 03:47:12;;;;;;;42.17;20.33;;;3.70;99.90;;;;;;5071293;28;20634;-70
2023/12/06 03:49:37;;;;;;;35.60;18.63;;;3.70;99.90;;;;;;5073615;28;20167;-70
2023/12/06 03:52:03;;;;;;;29.97;17.60;;;3.70;99.90;;;;;;5074829;28;20174;-70
2023/12/06 03:54:29;;;;;;;31.13;17.37;;;3.60;99.90;;;;;;5074680;28;20186;-70
2023/12/06 03:56:55;;;;;;;35.43;19.10;;;3.60;99.90;;;;;;5074750;28;20193;-70
2023/12/06 03:59:21;;;;;;;37.77;19.67;;;3.60;99.90;;;;;;5074599;28;20487;-70
2023/12/06 04:01:47;;;;;;;33.37;18.87;;;3.60;99.90;;;;;;5074725;28;20186;-70
2023/12/06 04:04:14;;;;;;;38.23;19.90;;;3.60;99.90;;;;;;5074792;28;20405;-70
2023/12/06 04:06:39;;;;;;;43.53;22.63;;;3.60;99.90;;;;;;5074652;28;20227;-70
2023/12/06 04:09:06;;;;;;;30.87;18.07;;;3.60;99.90;;;;;;5074429;28;20404;-70
2023/12/06 04:11:32;;;;;;;31.60;18.13;;;3.60;99.90;;;;;;5074500;28;20190;-70
2023/12/06 04:13:58;;;;;;;32.93;18.47;;;3.60;99.90;;;;;;5074551;28;20397;-70
2023/12/06 04:16:23;;;;;;;37.43;19.60;;;3.60;99.90;;;;;;5074484;28;20752;-70
2023/12/06 04:18:49;;;;;;;41.67;19.10;;;3.60;99.90;;;;;;5074398;28;20175;-70
2023/12/06 04:21:14;;;;;;;32.63;19.73;;;3.60;99.90;;;;;;5073032;28;20206;-70
2023/12/06 04:23:41;;;;;;;33.43;18.63;;;3.70;99.90;;;;;;5074410;28;20162;-70
2023/12/06 04:26:07;;;;;;;38.57;19.17;;;3.70;99.90;;;;;;5074470;28;20914;-70
2023/12/06 04:28:33;;;;;;;35.83;19.00;;;3.70;99.90;;;;;;5074271;28;20170;-70
2023/12/06 04:30:58;;;;;;;34.53;19.40;;;3.70;99.90;;;;;;5074189;28;20186;-70
2023/12/06 04:33:24;;;;;;;39.60;20.60;;;3.70;99.90;;;;;;5074119;28;20174;-70
2023/12/06 04:35:49;;;;;;;39.23;21.00;;;3.80;99.90;;;;;;5074259;28;20174;-70
2023/12/06 04:38:15;;;;;;;32.23;19.57;;;3.70;99.90;;;;;;5074067;28;20178;-70
2023/12/06 04:40:40;;;;;;;33.73;18.63;;;3.80;99.90;;;;;;5074019;28;20205;-70
2023/12/06 04:43:06;;;;;;;39.10;20.57;;;3.80;99.90;;;;;;5074089;28;20632;-70
2023/12/06 04:45:32;;;;;;;38.23;20.70;;;3.80;99.90;;;;;;5074097;28;20193;-69
2023/12/06 04:47:58;;;;;;;40.83;18.80;;;3.80;99.90;;;;;;5072359;28;20162;-70
2023/12/06 04:50:23;;;;;;;36.53;19.03;;;3.90;99.90;;;;;;5073794;28;20950;-70
2023/12/06 04:52:49;;;;;;;45.23;18.03;;;3.90;99.90;;;;;;5073856;28;20174;-70
2023/12/06 04:55:14;;;;;;;32.37;18.23;;;3.80;99.90;;;;;;5073827;28;20708;-70
2023/12/06 04:57:40;;;;;;;39.60;17.00;;;3.90;99.90;;;;;;5073722;28;20178;-70
2023/12/06 05:00:08;;;;;;;42.30;17.80;;;3.90;99.90;;;;;;5073493;28;20206;-70
2023/12/06 05:02:33;;;;;;;34.87;17.67;;;3.90;99.90;;;;;;5072444;28;20177;-70
2023/12/06 05:04:59;;;;;;;33.70;18.37;;;3.90;99.90;;;;;;5073667;28;20911;-70
2023/12/06 05:07:24;;;;;;;37.93;19.50;;;4.00;99.90;;;;;;5073509;28;20169;-70
2023/12/06 05:09:50;;;;;;;40.30;20.57;;;4.00;99.90;;;;;;5073607;28;20224;-70
2023/12/06 05:12:15;;;;;;;36.70;20.23;;;4.00;99.90;;;;;;5073517;28;20702;-70
2023/12/06 05:14:41;;;;;;;28.60;19.20;;;4.00;99.90;;;;;;5073574;28;20167;-70
2023/12/06 05:17:06;;;;;;;32.33;18.10;;;4.00;99.90;;;;;;5072260;28;20170;-70
2023/12/06 05:19:32;;;;;;;36.27;20.07;;;4.10;99.90;;;;;;5073193;28;20714;-70
2023/12/06 05:21:57;;;;;;;39.97;21.63;;;4.10;99.90;;;;;;5073170;28;20190;-70
2023/12/06 05:24:23;;;;;;;34.37;16.63;;;4.10;99.90;;;;;;5073196;28;20170;-70
2023/12/06 05:26:48;;;;;;;31.17;16.60;;;4.10;99.90;;;;;;5073255;28;20173;-70
2023/12/06 05:29:14;;;;;;;30.37;17.57;;;4.10;99.90;;;;;;5073138;28;20633;-70
2023/12/06 05:31:40;;;;;;;36.00;19.30;;;4.10;99.90;;;;;;5073116;28;20367;-70
2023/12/06 05:34:07;;;;;;;30.13;17.03;;;4.10;99.90;;;;;;5073179;28;20168;-69
2023/12/06 05:36:32;;;;;;;28.67;16.80;;;4.10;99.90;;;;;;5073101;28;20393;-69
2023/12/06 05:38:58;;;;;;;25.60;17.20;;;4.10;99.90;;;;;;5071550;28;20416;-69
2023/12/06 05:41:23;;;;;;;35.43;19.13;;;4.10;99.90;;;;;;5072773;28;20209;-69
2023/12/06 05:43:50;;;;;;;34.27;17.10;;;4.10;99.90;;;;;;5072906;28;20170;-69
2023/12/06 05:46:15;;;;;;;32.30;18.93;;;4.10;99.90;;;;;;5072961;28;20158;-69
2023/12/06 05:48:41;;;;;;;24.13;15.73;;;4.10;99.90;;;;;;5072685;28;20760;-69
2023/12/06 05:51:07;;;;;;;28.20;17.23;;;4.10;99.90;;;;;;5072698;28;20186;-70
2023/12/06 05:53:33;;;;;;;33.13;19.10;;;4.10;99.90;;;;;;5072697;28;20174;-70
2023/12/06 05:55:58;;;;;;;27.30;17.93;;;4.10;99.90;;;;;;5072779;28;20483;-69
2023/12/06 05:58:24;;;;;;;26.97;15.97;;;4.10;99.90;;;;;;5072546;28;20950;-69
2023/12/06 06:00:51;;;;;;;29.67;17.40;;;4.20;99.90;;;;;;5072510;28;20198;-70
2023/12/06 06:03:17;;;;;;;28.63;19.03;;;4.20;99.90;;;;;;5072466;28;20190;-70
2023/12/06 06:05:42;;;;;;;26.20;18.00;;;4.20;99.90;;;;;;5071276;28;20814;-70
2023/12/06 06:08:08;;;;;;;28.30;18.57;;;4.20;99.90;;;;;;5072259;28;20167;-70
2023/12/06 06:10:33;;;;;;;35.20;19.20;;;4.20;99.90;;;;;;5072147;28;20231;-70
2023/12/06 06:12:59;;;;;;;33.40;18.27;;;4.20;99.90;;;;;;5071889;28;20170;-70
2023/12/06 06:15:24;;;;;;;33.03;17.60;;;4.20;99.90;;;;;;5072456;28;20178;-70
2023/12/06 06:17:50;;;;;;;35.27;17.97;;;4.20;99.90;;;;;;5072215;28;20549;-70
2023/12/06 06:20:15;;;;;;;36.50;19.73;;;4.20;99.90;;;;;;5070575;28;20198;-70
2023/12/06 06:22:41;;;;;;;31.23;18.40;;;4.30;99.90;;;;;;5071846;28;20247;-70
2023/12/06 06:25:08;;;;;;;35.70;20.30;;;4.30;99.90;;;;;;5070970;28;20170;-70
2023/12/06 06:27:34;;;;;;;27.43;17.53;;;4.30;99.90;;;;;;5071916;28;20439;-70
2023/12/06 06:29:59;;;;;;;31.90;19.20;;;4.30;99.90;;;;;;5072001;28;20431;-71
2023/12/06 06:32:25;;;;;;;32.77;18.83;;;4.30;99.90;;;;;;5071612;28;20162;-70
2023/12/06 06:34:50;;;;;;;28.67;19.27;;;4.20;99.90;;;;;;5072048;28;20166;-71
2023/12/06 06:37:16;;;;;;;31.33;19.33;;;4.30;99.90;;;;;;5071726;28;20224;-70
2023/12/06 06:39:41;;;;;;;28.60;19.53;;;4.30;99.90;;;;;;5071846;28;20248;-71
2023/12/06 06:42:07;;;;;;;29.37;19.57;;;4.30;99.90;;;;;;5071852;28;20158;-71
2023/12/06 06:44:33;;;;;;;31.97;17.90;;;4.30;99.90;;;;;;5071833;28;20688;-70
2023/12/06 06:46:58;;;;;;;30.50;19.10;;;4.30;99.90;;;;;;5072086;28;20162;-70
2023/12/06 06:49:24;;;;;;;31.40;17.00;;;4.40;99.90;;;;;;5070661;28;20162;-71
2023/12/06 06:51:50;;;;;;;31.73;19.07;;;4.40;99.90;;;;;;5071476;28;20672;-70
2023/12/06 06:54:15;;;;;;;35.40;18.60;;;4.40;99.90;;;;;;5071660;28;20416;-71
2023/12/06 06:56:41;;;;;;;29.50;18.73;;;4.40;99.90;;;;;;5071660;28;20166;-70
2023/12/06 06:59:06;;;;;;;31.13;19.33;;;4.40;99.90;;;;;;5071551;28;20162;-70
2023/12/06 07:01:32;;;;;;;28.73;18.73;;;4.50;99.90;;;;;;5071990;28;20209;-71
2023/12/06 07:03:57;;;;;;;32.83;19.70;;;4.50;99.90;;;;;;5071636;28;20204;-70
2023/12/06 07:06:23;;;;;;;35.80;19.57;;;4.50;99.90;;;;;;5071632;28;20178;-70
2023/12/06 07:08:49;;;;;;;33.30;18.80;;;4.50;99.90;;;;;;5071456;28;20178;-70
2023/12/06 07:11:15;;;;;;;32.17;19.47;;;4.50;99.90;;;;;;5071471;28;20192;-71
2023/12/06 07:13:41;;;;;;;29.27;19.40;;;4.50;99.90;;;;;;5071262;28;20409;-70
2023/12/06 07:16:07;;;;;;;28.40;18.40;;;4.40;99.90;;;;;;5071431;28;20416;-70
2023/12/06 07:18:32;;;;;;;30.53;19.13;;;4.50;99.90;;;;;;5070068;28;20188;-70
2023/12/06 07:20:59;;;;;;;26.57;18.20;;;4.50;99.90;;;;;;5071277;28;20685;-71
2023/12/06 07:23:24;;;;;;;24.77;17.93;;;4.50;99.90;;;;;;5073843;28;20167;-71
2023/12/06 07:25:51;;;;;;;26.60;17.93;;;4.50;99.90;;;;;;5075618;28;20475;-70
2023/12/06 07:28:17;;;;;;;34.57;17.73;;;4.50;99.90;;;;;;5075423;28;20158;-70
2023/12/06 07:30:42;;;;;;;26.57;16.40;;;4.50;99.90;;;;;;5075589;28;21010;-70
2023/12/06 07:33:08;;;;;;;22.80;17.07;;;4.60;99.90;;;;;;5075283;28;20625;-70
2023/12/06 07:35:34;;;;;;;23.53;14.57;;;4.50;99.90;;;;;;5075468;28;20235;-70
2023/12/06 07:38:00;;;;;;;24.23;15.60;;;4.50;99.90;;;;;;5075170;28;20420;-70
2023/12/06 07:40:26;;;;;;;25.63;16.50;;;4.60;99.90;;;;;;5075177;28;20513;-71
2023/12/06 07:42:52;;;;;;;27.70;17.97;;;4.60;99.90;;;;;;5075117;28;20408;-70
2023/12/06 07:45:18;;;;;;;25.20;16.93;;;4.70;99.90;;;;;;5075286;28;20449;-70
2023/12/06 07:47:43;;;;;;;23.93;17.50;;;4.70;99.90;;;;;;5075002;28;20526;-70
2023/12/06 07:50:10;;;;;;;27.33;16.90;;;4.70;99.90;;;;;;5075003;28;20554;-70
2023/12/06 07:52:36;;;;;;;29.37;18.50;;;4.80;99.90;;;;;;5075005;28;20185;-70
2023/12/06 07:55:06;;;;;;;31.30;16.57;;;4.80;99.90;;;;;;5074854;28;20424;-70
2023/12/06 07:57:32;;;;;;;29.27;16.40;;;4.80;99.90;;;;;;5074775;28;20504;-70
2023/12/06 07:59:58;;;;;;;28.07;18.40;;;4.80;99.90;;;;;;5074074;28;20464;-71
2023/12/06 08:02:27;;;;;;;23.80;16.77;;;4.90;99.90;;;;;;5074773;28;20400;-70
2023/12/06 08:04:52;;;;;;;23.93;16.10;;;4.90;99.90;;;;;;5074745;28;20401;-70
2023/12/06 08:07:18;;;;;;;27.73;16.67;;;4.90;99.90;;;;;;5074673;28;20778;-70
2023/12/06 08:09:44;;;;;;;33.87;18.57;;;4.90;99.90;;;;;;5074742;28;20166;-70
2023/12/06 08:12:10;;;;;;;23.13;15.50;;;5.00;99.90;;;;;;5074589;28;20169;-70
2023/12/06 08:14:39;;;;;;;26.97;18.50;;;5.00;99.90;;;;;;5074657;28;20400;-70
2023/12/06 08:17:05;;;;;;;27.30;16.87;;;5.00;99.90;;;;;;5074568;28;20162;-70
2023/12/06 08:19:30;;;;;;;33.63;16.90;;;5.00;99.90;;;;;;5074273;28;20401;-70
2023/12/06 08:21:56;;;;;;;36.73;17.77;;;5.00;99.90;;;;;;5074095;28;20187;-70
2023/12/06 08:24:22;;;;;;;24.40;17.00;;;5.10;99.90;;;;;;5074490;28;20209;-71
2023/12/06 08:26:47;;;;;;;24.90;17.83;;;5.20;99.90;;;;;;5074400;28;20771;-70
2023/12/06 08:29:13;;;;;;;24.30;17.73;;;5.20;99.90;;;;;;5074316;28;20671;-70
2023/12/06 08:31:38;;;;;;;25.33;17.00;;;5.20;99.90;;;;;;5072950;28;20197;-70
2023/12/06 08:34:04;;;;;;;22.77;16.10;;;5.20;99.90;;;;;;5073510;28;20177;-71
2023/12/06 08:36:29;;;;;;;25.60;17.43;;;5.20;99.90;;;;;;5074333;28;20167;-71
2023/12/06 08:38:55;;;;;;;26.13;18.00;;;5.20;99.90;;;;;;5074005;28;20166;-70
2023/12/06 08:41:22;;;;;;;24.67;16.37;;;5.30;99.90;;;;;;5074028;28;20285;-69
2023/12/06 08:43:47;;;;;;;27.40;17.20;;;5.20;99.90;;;;;;5074090;28;20162;-70
2023/12/06 08:46:13;;;;;;;25.37;16.20;;;5.20;99.90;;;;;;5074037;28;20479;-70
2023/12/06 08:48:38;;;;;;;33.73;17.63;;;5.20;99.90;;;;;;5072832;28;20515;-70
2023/12/06 08:51:04;;;;;;;26.50;17.37;;;5.30;99.90;;;;;;5074488;28;20681;-72
2023/12/06 08:53:30;;;;;;;25.37;17.07;;;5.30;99.90;;;;;;5074390;28;20178;-71
2023/12/06 08:55:56;;;;;;;27.90;18.43;;;5.50;99.90;;;;;;5073905;28;20245;-71
2023/12/06 08:58:22;;;;;;;30.23;18.53;;;5.50;99.90;;;;;;5072694;28;20657;-71
2023/12/06 09:00:48;;;;;;;22.83;18.00;;;5.50;99.90;;;;;;5073694;28;20448;-70
2023/12/06 09:03:14;;;;;;;26.40;17.67;;;5.50;99.90;;;;;;5073829;28;20767;-70
2023/12/06 09:05:39;;;;;;;26.77;17.20;;;5.50;99.90;;;;;;5073508;28;20163;-70
2023/12/06 09:08:06;;;;;;;20.43;14.60;;;5.60;99.90;;;;;;5073471;28;20919;-69
2023/12/06 09:10:31;;;;;;;24.60;17.20;;;5.60;99.90;;;;;;5073570;28;20194;-69
2023/12/06 09:12:57;;;;;;;27.60;17.23;;;5.70;99.90;;;;;;5073390;28;20852;-70
2023/12/06 09:15:23;;;;;;;26.37;16.90;;;5.70;99.90;;;;;;5073510;28;20169;-70
2023/12/06 09:17:49;;;;;;;24.67;13.40;;;5.70;99.90;;;;;;5073397;28;20174;-71
2023/12/06 09:20:15;;;;;;;23.13;15.40;;;5.80;99.90;;;;;;5073471;28;20219;-70
2023/12/06 09:22:41;;;;;;;24.30;15.87;;;6.00;99.90;;;;;;5073253;28;20392;-70
2023/12/06 09:25:07;;;;;;;26.93;18.53;;;6.10;99.90;;;;;;5073339;28;20433;-70
2023/12/06 09:27:33;;;;;;;30.03;16.30;;;6.20;99.90;;;;;;5072840;28;20401;-70
2023/12/06 09:29:58;;;;;;;26.03;15.70;;;6.20;99.90;;;;;;5073178;28;20186;-70
2023/12/06 09:32:24;;;;;;;22.67;15.90;;;6.20;99.90;;;;;;5073027;28;20404;-71
2023/12/06 09:34:50;;;;;;;23.70;16.40;;;6.20;99.90;;;;;;5073173;28;20178;-71
2023/12/06 09:37:16;;;;;;;22.73;15.27;;;6.30;99.90;;;;;;5072919;28;20220;-70
2023/12/06 09:39:42;;;;;;;24.20;14.20;;;6.30;99.90;;;;;;5072939;28;20197;-71
2023/12/06 09:42:07;;;;;;;24.90;17.10;;;6.40;99.90;;;;;;5072853;28;20162;-70
2023/12/06 09:44:37;;;;;;;22.27;14.60;;;6.40;99.90;;;;;;5072989;28;20480;-71
2023/12/06 09:47:03;;;;;;;25.43;16.70;;;6.40;99.90;;;;;;5072046;28;20228;-70
2023/12/06 09:49:28;;;;;;;26.07;16.60;;;6.40;99.90;;;;;;5072563;28;20404;-70
2023/12/06 09:52:03;;;;;;;25.30;16.80;;;6.40;99.90;;;;;;5072217;28;20190;-70
2023/12/06 09:54:28;;;;;;;24.37;15.33;;;6.40;99.90;;;;;;5052534;28;20201;-69
2023/12/06 09:56:54;;;;;;;23.40;17.00;;;6.40;99.90;;;;;;5052698;28;20880;-69
2023/12/06 09:59:19;;;;;;;22.77;13.63;;;6.40;99.90;;;;;;5052619;28;20213;-69
2023/12/06 10:01:45;;;;;;;25.90;15.63;;;6.40;99.90;;;;;;5052457;28;20222;-70
2023/12/06 10:04:10;;;;;;;16.70;14.00;;;6.40;99.90;;;;;;5062707;28;20174;-69
2023/12/06 10:06:36;;;;;;;24.60;15.60;;;6.50;99.90;;;;;;5072527;28;20736;-70
2023/12/06 10:09:03;;;;;;;23.20;15.60;;;6.50;99.90;;;;;;5072296;28;20166;-69
2023/12/06 10:11:28;;;;;;;22.70;15.70;;;6.60;99.90;;;;;;5072255;28;20281;-70
2023/12/06 10:13:54;;;;;;;21.90;15.40;;;6.60;99.90;;;;;;5071388;28;20495;-69
2023/12/06 10:16:21;;;;;;;25.60;15.00;;;6.60;99.90;;;;;;5072280;28;20220;-69
2023/12/06 10:18:48;;;;;;;28.07;14.50;;;6.70;99.90;;;;;;5072216;28;20219;-69
2023/12/06 10:21:14;;;;;;;23.10;14.40;;;6.70;99.90;;;;;;5072213;28;20448;-70
2023/12/06 10:23:41;;;;;;;26.97;15.63;;;6.70;99.90;;;;;;5072243;28;20927;-69
2023/12/06 10:26:14;;;;;;;24.97;14.30;;;6.70;99.90;;;;;;5072217;28;20407;-70
2023/12/06 10:28:40;;;;;;;22.97;15.33;;;6.70;99.90;;;;;;5072116;28;20801;-69
2023/12/06 10:31:06;;;;;;;22.10;16.13;;;6.70;99.90;;;;;;5071992;28;20477;-70
2023/12/06 10:33:32;;;;;;;19.27;13.07;;;6.70;99.90;;;;;;5072149;28;20245;-70
2023/12/06 10:36:00;;;;;;;28.40;15.20;;;6.80;99.90;;;;;;5072104;28;20492;-70
2023/12/06 10:38:27;;;;;;;20.60;14.23;;;6.80;99.90;;;;;;5071779;28;20400;-70
2023/12/06 10:40:54;;;;;;;22.10;15.40;;;6.80;99.90;;;;;;5071815;28;21029;-69
2023/12/06 10:43:22;;;;;;;19.63;13.17;;;6.90;99.90;;;;;;5071957;28;20411;-70
2023/12/06 10:45:50;;;;;;;17.87;12.70;;;7.00;99.90;;;;;;5072002;28;20392;-70
2023/12/06 10:48:17;;;;;;;22.30;14.03;;;7.00;99.90;;;;;;5071690;28;20405;-70
2023/12/06 10:50:43;;;;;;;16.57;12.43;;;7.00;99.90;;;;;;5071820;28;20489;-70
2023/12/06 10:53:16;;;;;;;17.53;11.80;;;7.10;99.90;;;;;;5071662;28;20404;-69
2023/12/06 10:55:42;;;;;;;22.73;14.40;;;7.00;99.90;;;;;;5071957;28;20407;-70
2023/12/06 10:58:08;;;;;;;23.17;14.93;;;7.00;99.90;;;;;;5071371;28;20405;-69
2023/12/06 11:00:34;;;;;;;21.67;13.50;;;6.90;99.90;;;;;;5071586;28;20459;-69
2023/12/06 11:03:01;;;;;;;21.07;14.03;;;6.90;99.90;;;;;;5071652;28;20393;-70
2023/12/06 11:05:30;;;;;;;20.10;14.03;;;6.90;99.90;;;;;;5070655;28;20498;-70
2023/12/06 11:08:22;;;;;;;20.93;12.57;;;6.90;99.90;;;;;;5071668;28;20400;-71
2023/12/06 11:10:56;;;;;;;21.70;12.80;;;6.80;99.90;;;;;;5071608;28;20474;-70
2023/12/06 11:13:55;;;;;;;20.90;14.17;;;6.80;99.90;;;;;;5071753;28;20401;-70
2023/12/06 11:16:52;;;;;;;23.73;11.80;;;6.90;99.90;;;;;;5069468;28;20423;-70
2023/12/06 11:19:18;;;;;;;16.13;12.73;;;6.90;99.90;;;;;;5061284;28;20908;-69
2023/12/06 11:21:44;;;;;;;21.70;13.13;;;7.00;99.90;;;;;;5051537;28;20899;-70
2023/12/06 11:24:10;;;;;;;21.30;11.77;;;7.00;99.90;;;;;;5051515;28;20470;-69
2023/12/06 11:26:36;;;;;;;20.80;13.83;;;7.10;99.90;;;;;;5051556;28;20533;-70
2023/12/06 11:29:03;;;;;;;16.57;11.50;;;7.20;99.90;;;;;;5051610;28;20398;-70
2023/12/06 11:31:36;;;;;;;17.53;12.83;;;7.20;99.90;;;;;;5051506;28;20561;-70
2023/12/06 11:34:11;;;;;;;28.73;13.30;;;7.40;99.90;;;;;;5051434;28;20408;-69
2023/12/06 11:36:37;;;;;;;14.97;10.87;;;7.40;99.90;;;;;;5051246;28;20409;-70
2023/12/06 11:39:21;;;;;;;18.37;12.47;;;7.50;99.90;;;;;;5051368;28;20406;-70
2023/12/06 11:41:53;;;;;;;17.80;12.47;;;7.70;99.90;;;;;;5051214;28;20821;-70
2023/12/06 11:44:19;;;;;;;15.33;10.60;;;7.70;99.90;;;;;;5051210;28;20397;-70
2023/12/06 11:46:49;;;;;;;18.07;11.33;;;7.70;99.90;;;;;;5051113;28;20404;-70
2023/12/06 11:49:15;;;;;;;16.70;13.10;;;7.60;99.90;;;;;;5051105;28;20402;-70
2023/12/06 11:51:40;;;;;;;16.93;11.17;;;7.60;99.90;;;;;;5051118;28;20774;-71
2023/12/06 11:54:06;;;;;;;15.43;10.40;;;7.60;99.90;;;;;;5051139;28;20547;-70
2023/12/06 11:56:32;;;;;;;15.20;11.07;;;7.60;99.90;;;;;;5051302;28;20261;-69
2023/12/06 11:58:58;;;;;;;16.77;10.60;;;7.70;99.90;;;;;;5051037;28;20175;-70
2023/12/06 12:01:25;;;;;;;17.40;10.90;;;7.70;99.90;;;;;;5051000;28;20689;-71
2023/12/06 12:03:51;;;;;;;13.60;10.10;;;7.70;99.90;;;;;;5051106;28;20401;-70
2023/12/06 12:06:19;;;;;;;13.07;11.00;;;7.80;99.90;;;;;;5051276;28;20404;-70
2023/12/06 12:08:45;;;;;;;15.63;11.23;;;7.90;99.90;;;;;;5051153;28;20512;-71
2023/12/06 12:11:11;;;;;;;12.67;9.83;;;7.90;99.90;;;;;;5054284;28;20452;-69
2023/12/06 12:13:38;;;;;;;12.60;11.07;;;8.00;99.90;;;;;;5054693;28;20213;-70
2023/12/06 12:16:05;;;;;;;16.03;10.47;;;8.10;99.90;;;;;;5054746;28;20409;-70
2023/12/06 12:18:31;;;;;;;18.20;11.23;;;8.40;99.90;;;;;;5054493;28;20398;-71
2023/12/06 12:21:00;;;;;;;14.83;11.87;;;9.10;99.90;;;;;;5054454;28;20461;-70
2023/12/06 12:23:28;;;;;;;14.83;10.30;;;10.90;99.90;;;;;;5054485;28;20539;-70
2023/12/06 12:25:53;;;;;;;11.90;9.53;;;12.70;99.90;;;;;;5054533;28;20401;-70
2023/12/06 12:28:20;;;;;;;10.43;8.03;;;13.50;99.90;;;;;;5054265;28;20923;-71
2023/12/06 12:30:48;;;;;;;15.33;7.93;;;13.90;99.90;;;;;;5054413;28;20274;-71
2023/12/06 12:33:15;;;;;;;11.40;7.87;;;14.30;99.90;;;;;;5054198;28;20417;-71